createdAt,value
2022-11-08T00:01:26.552Z,0.8
2022-11-08T00:03:57.383Z,0.7
2022-11-08T00:06:27.989Z,0.7
2022-11-08T00:08:58.576Z,0.7
2022-11-08T00:11:29.174Z,0.7
2022-11-08T00:13:59.782Z,0.7
2022-11-08T00:16:40.420Z,0.7
2022-11-08T00:19:11.035Z,0.7
2022-11-08T00:21:41.635Z,0.7
2022-11-08T00:24:12.210Z,0.7
2022-11-08T00:26:42.809Z,0.7
2022-11-08T00:29:13.404Z,0.7
2022-11-08T00:31:54.005Z,0.7
2022-11-08T00:36:54.747Z,0.7
2022-11-08T00:39:35.313Z,0.7
2022-11-08T00:42:05.999Z,0.7
2022-11-08T00:44:46.592Z,0.7
2022-11-08T00:47:17.182Z,0.7
2022-11-08T00:49:47.754Z,0.7
2022-11-08T00:52:18.344Z,0.9
2022-11-08T00:54:48.951Z,1.2
2022-11-08T00:57:22.273Z,1.0
2022-11-08T00:59:58.964Z,0.9
2022-11-08T01:02:29.588Z,0.8
2022-11-08T01:05:00.349Z,0.7
2022-11-08T01:07:30.982Z,0.7
2022-11-08T01:10:01.605Z,0.7
2022-11-08T01:12:32.198Z,0.6
2022-11-08T01:17:42.921Z,0.5
2022-11-08T01:20:13.520Z,0.5
2022-11-08T01:22:44.081Z,0.5
2022-11-08T01:25:14.654Z,0.4
2022-11-08T01:27:45.250Z,0.3
2022-11-08T01:30:25.875Z,0.3
2022-11-08T01:32:56.484Z,0.3
2022-11-08T01:35:27.077Z,0.3
2022-11-08T01:37:57.633Z,0.3
2022-11-08T01:40:28.705Z,0.3
2022-11-08T01:43:09.319Z,0.3
2022-11-08T01:45:39.929Z,0.3
2022-11-08T01:48:10.506Z,0.2
2022-11-08T01:50:41.143Z,0.2
2022-11-08T01:53:12.046Z,0.1
2022-11-08T01:58:22.771Z,0.1
2022-11-08T02:00:53.438Z,0.1
2022-11-08T02:03:24.212Z,0.1
2022-11-08T02:05:54.805Z,0.1
2022-11-08T02:08:25.436Z,0.1
2022-11-08T02:10:56.025Z,0.1
2022-11-08T02:13:36.625Z,0.1
2022-11-08T02:16:07.236Z,0.2
2022-11-08T02:18:37.833Z,0.4
2022-11-08T02:21:08.423Z,0.3
2022-11-08T02:23:38.990Z,0.3
2022-11-08T02:26:09.600Z,0.2
2022-11-08T02:28:50.211Z,0.2
2022-11-08T02:31:20.804Z,0.3
2022-11-08T02:33:51.412Z,0.2
2022-11-08T02:38:52.191Z,0.1
2022-11-08T02:41:22.807Z,0.1
2022-11-08T02:44:03.407Z,0.2
2022-11-08T02:46:44.002Z,0.3
2022-11-08T02:49:14.573Z,0.4
2022-11-08T02:51:45.183Z,0.5
2022-11-08T02:54:16.001Z,0.7
2022-11-08T02:56:56.645Z,0.7
2022-11-08T02:59:27.224Z,0.7
2022-11-08T03:01:57.872Z,0.8
2022-11-08T03:04:28.909Z,0.7
2022-11-08T03:06:59.517Z,0.7
2022-11-08T03:09:25.119Z,0.7
2022-11-08T03:12:05.744Z,0.7
2022-11-08T03:19:36.614Z,0.6
2022-11-08T03:22:07.193Z,0.2
2022-11-08T03:24:37.807Z,0.0
2022-11-08T03:27:18.392Z,-0.1
2022-11-08T03:29:48.985Z,-0.2
2022-11-08T03:32:19.586Z,-0.3
2022-11-08T03:34:50.181Z,-0.4
2022-11-08T03:37:20.753Z,-0.5
2022-11-08T03:39:51.340Z,-0.4
2022-11-08T03:42:31.945Z,-0.3
2022-11-08T03:45:02.548Z,-0.4
2022-11-08T03:47:33.131Z,-0.4
2022-11-08T03:50:03.730Z,-0.3
2022-11-08T03:52:34.312Z,-0.4
2022-11-08T03:55:25.016Z,-0.4
2022-11-08T04:00:25.746Z,-0.4
2022-11-08T04:02:56.338Z,-0.4
2022-11-08T04:05:26.956Z,-0.5
2022-11-08T04:10:37.718Z,-0.5
2022-11-08T04:13:08.339Z,-0.5
2022-11-08T04:15:38.939Z,-0.6
2022-11-08T04:18:09.700Z,-0.5
2022-11-08T04:20:40.971Z,-0.6
2022-11-08T04:23:11.532Z,-0.5
2022-11-08T04:25:52.155Z,-0.5
2022-11-08T04:28:22.757Z,-0.5
2022-11-08T04:30:53.370Z,-0.5
2022-11-08T04:33:23.962Z,-0.6
2022-11-08T04:41:04.879Z,-0.8
2022-11-08T04:43:35.448Z,-0.9
2022-11-08T04:46:06.117Z,-0.9
2022-11-08T04:48:36.702Z,-0.9
2022-11-08T04:51:07.335Z,-0.9
2022-11-08T04:53:47.936Z,-1.0
2022-11-08T04:56:18.543Z,-0.9
2022-11-08T04:58:49.120Z,-0.9
2022-11-08T05:01:22.388Z,-1.0
2022-11-08T05:03:53.303Z,-1.1
2022-11-08T05:06:23.935Z,-1.2
2022-11-08T05:09:04.548Z,-1.1
2022-11-08T05:11:35.146Z,-1.1
2022-11-08T05:14:05.714Z,-1.1
2022-11-08T05:16:36.327Z,-0.9
2022-11-08T05:21:37.063Z,-1.1
2022-11-08T05:24:17.667Z,-1.2
2022-11-08T05:26:48.245Z,-1.3
2022-11-08T05:29:18.830Z,-1.3
2022-11-08T05:31:52.472Z,-1.4
2022-11-08T05:34:23.141Z,-1.4
2022-11-08T05:36:53.741Z,-1.5
2022-11-08T05:39:34.341Z,-1.5
2022-11-08T05:42:04.969Z,-1.5
2022-11-08T05:44:35.578Z,-1.5
2022-11-08T05:47:06.378Z,-1.4
2022-11-08T05:52:07.111Z,-1.4
2022-11-08T05:54:47.994Z,-1.4
2022-11-08T05:57:21.272Z,-1.4
2022-11-08T06:02:22.927Z,-1.5
2022-11-08T06:04:53.938Z,-1.5
2022-11-08T06:07:34.541Z,-1.6
2022-11-08T06:10:05.141Z,-0.9
2022-11-08T06:12:35.834Z,-1.0
2022-11-08T06:15:06.448Z,-1.1
2022-11-08T06:17:37.011Z,-1.1
2022-11-08T06:20:07.615Z,-1.2
2022-11-08T06:22:49.615Z,-1.3
2022-11-08T06:25:20.216Z,-1.3
2022-11-08T06:27:45.333Z,-1.3
2022-11-08T06:30:15.948Z,-1.2
2022-11-08T06:32:46.571Z,-1.3
2022-11-08T06:35:17.584Z,-1.2
2022-11-08T06:38:00.649Z,-1.4
2022-11-08T06:43:02.683Z,-1.4
2022-11-08T06:45:29.537Z,-1.3
2022-11-08T06:48:00.122Z,-1.3
2022-11-08T06:50:40.730Z,-1.3
2022-11-08T06:53:11.347Z,-1.1
2022-11-08T06:55:42.251Z,-1.0
2022-11-08T06:58:13.303Z,-0.9
2022-11-08T07:00:43.902Z,-0.5
2022-11-08T07:03:14.523Z,-0.5
2022-11-08T07:05:55.198Z,-0.5
2022-11-08T07:08:25.806Z,-0.5
2022-11-08T07:10:56.505Z,0.5
2022-11-08T07:15:57.250Z,1.5
2022-11-08T07:18:28.025Z,1.7
2022-11-08T07:23:38.995Z,2.0
2022-11-08T07:26:09.636Z,2.2
2022-11-08T07:28:40.245Z,2.3
2022-11-08T07:31:10.837Z,2.3
2022-11-08T07:33:51.451Z,2.3
2022-11-08T07:36:22.062Z,2.4
2022-11-08T07:38:52.642Z,2.4
2022-11-08T07:41:27.039Z,2.5
2022-11-08T07:43:57.663Z,2.5
2022-11-08T07:46:28.657Z,2.6
2022-11-08T07:49:09.396Z,2.6
2022-11-08T07:51:39.957Z,2.7
2022-11-08T07:54:10.567Z,2.8
2022-11-08T07:56:41.170Z,2.8
2022-11-08T07:59:11.753Z,2.9
2022-11-08T08:04:22.523Z,3.0
2022-11-08T08:06:53.130Z,3.1
2022-11-08T08:09:23.745Z,3.1
2022-11-08T08:11:54.325Z,3.2
2022-11-08T08:14:24.913Z,3.3
2022-11-08T08:16:55.488Z,3.4
2022-11-08T08:19:36.123Z,3.5
2022-11-08T08:22:06.714Z,3.6
2022-11-08T08:24:37.322Z,3.7
2022-11-08T08:27:13.029Z,3.8
2022-11-08T08:29:43.629Z,3.8
2022-11-08T08:32:14.224Z,3.9
2022-11-08T08:34:49.745Z,4.0
2022-11-08T08:37:20.298Z,4.0
2022-11-08T08:39:50.913Z,4.2
2022-11-08T08:44:52.246Z,4.5
2022-11-08T08:47:35.488Z,4.6
2022-11-08T08:50:06.098Z,4.5
2022-11-08T08:52:36.892Z,4.6
2022-11-08T08:55:07.496Z,4.6
2022-11-08T08:57:38.102Z,4.7
2022-11-08T09:02:50.616Z,4.8
2022-11-08T09:05:21.181Z,4.9
2022-11-08T09:07:51.823Z,5.2
2022-11-08T09:10:22.428Z,5.2
2022-11-08T09:12:53.016Z,5.2
2022-11-08T09:15:23.629Z,5.3
2022-11-08T09:18:04.294Z,5.4
2022-11-08T09:20:35.099Z,5.4
2022-11-08T09:25:35.777Z,5.5
2022-11-08T09:28:06.358Z,5.5
2022-11-08T09:30:41.511Z,5.6
2022-11-08T09:33:22.175Z,5.6
2022-11-08T09:35:52.805Z,5.8
2022-11-08T09:38:23.395Z,5.9
2022-11-08T09:40:53.993Z,6.0
2022-11-08T09:43:24.577Z,6.2
2022-11-08T09:45:55.188Z,6.3
2022-11-08T09:48:35.810Z,6.4
2022-11-08T09:51:06.408Z,6.2
2022-11-08T09:53:37.026Z,6.3
2022-11-08T09:56:07.625Z,6.2
2022-11-08T09:58:38.209Z,6.1
2022-11-08T10:01:21.161Z,6.1
2022-11-08T10:06:23.073Z,6.2
2022-11-08T10:08:53.720Z,6.2
2022-11-08T10:11:24.360Z,6.3
2022-11-08T10:13:54.943Z,6.2
2022-11-08T10:16:35.549Z,6.4
2022-11-08T10:19:06.136Z,6.4
2022-11-08T10:21:36.791Z,6.6
2022-11-08T10:24:07.390Z,6.6
2022-11-08T10:26:37.986Z,6.6
2022-11-08T10:29:08.560Z,6.8
2022-11-08T10:31:49.194Z,6.8
2022-11-08T10:34:19.809Z,7.0
2022-11-08T10:36:50.406Z,7.0
2022-11-08T10:39:20.982Z,7.0
2022-11-08T10:41:51.577Z,7.2
2022-11-08T10:47:02.351Z,7.1
2022-11-08T10:49:32.944Z,7.2
2022-11-08T10:52:03.630Z,7.3
2022-11-08T10:54:34.267Z,7.4
2022-11-08T10:57:04.875Z,7.3
2022-11-08T10:59:35.458Z,7.3
2022-11-08T11:02:16.140Z,7.4
2022-11-08T11:04:46.887Z,7.5
2022-11-08T11:07:17.557Z,7.5
2022-11-08T11:09:48.198Z,7.5
2022-11-08T11:12:18.792Z,7.5
2022-11-08T11:14:59.418Z,7.5
2022-11-08T11:17:30.984Z,7.6
2022-11-08T11:20:03.578Z,7.6
2022-11-08T11:22:34.208Z,7.8
2022-11-08T11:27:34.929Z,7.7
2022-11-08T11:30:15.531Z,7.7
2022-11-08T11:32:46.155Z,7.6
2022-11-08T11:35:16.919Z,7.7
2022-11-08T11:37:47.536Z,7.7
2022-11-08T11:40:18.224Z,7.7
2022-11-08T11:42:48.850Z,7.7
2022-11-08T11:45:29.454Z,7.7
2022-11-08T11:48:00.087Z,7.8
2022-11-08T11:50:31.092Z,7.9
2022-11-08T11:53:01.799Z,8.0
2022-11-08T11:55:32.409Z,8.0
2022-11-08T11:58:03.015Z,8.0
2022-11-08T12:00:43.915Z,8.1
2022-11-08T12:03:14.764Z,8.2
2022-11-08T12:08:15.849Z,8.2
2022-11-08T12:10:46.609Z,8.3
2022-11-08T12:13:17.211Z,8.3
2022-11-08T12:15:57.833Z,8.5
2022-11-08T12:18:41.898Z,8.7
2022-11-08T12:21:03.367Z,8.8
2022-11-08T12:23:33.967Z,8.9
2022-11-08T12:26:04.588Z,9.1
2022-11-08T12:28:38.559Z,9.1
2022-11-08T12:31:20.452Z,9.2
2022-11-08T12:33:55.274Z,9.2
2022-11-08T12:36:18.194Z,9.3
2022-11-08T12:38:48.773Z,9.4
2022-11-08T12:41:19.361Z,9.4
2022-11-08T12:43:49.981Z,9.5
2022-11-08T12:49:00.738Z,10.2
2022-11-08T12:51:31.332Z,10.2
2022-11-08T12:54:01.930Z,10.4
2022-11-08T12:56:34.447Z,10.6
2022-11-08T12:59:15.142Z,10.7
2022-11-08T13:01:45.745Z,11.1
2022-11-08T13:04:16.349Z,11.3
2022-11-08T13:06:46.983Z,11.2
2022-11-08T13:09:17.932Z,11.5
2022-11-08T13:11:48.538Z,11.6
2022-11-08T13:14:29.121Z,11.6
2022-11-08T13:17:01.961Z,11.6
2022-11-08T13:19:32.561Z,11.6
2022-11-08T13:22:03.216Z,11.7
2022-11-08T13:24:43.686Z,11.7
2022-11-08T13:29:45.154Z,11.7
2022-11-08T13:32:15.779Z,11.5
2022-11-08T13:34:46.487Z,11.4
2022-11-08T13:37:17.086Z,11.3
2022-11-08T13:39:47.667Z,11.2
2022-11-08T13:42:18.282Z,11.1
2022-11-08T13:44:58.890Z,11.0
2022-11-08T13:47:29.498Z,10.9
2022-11-08T13:50:00.091Z,10.8
2022-11-08T13:52:30.685Z,10.8
2022-11-08T13:55:01.309Z,11.0
2022-11-08T13:57:42.010Z,11.4
2022-11-08T14:00:12.608Z,11.8
2022-11-08T14:02:43.186Z,12.1
2022-11-08T14:05:13.786Z,12.4
2022-11-08T14:10:14.529Z,12.9
2022-11-08T14:12:55.129Z,12.6
2022-11-08T14:15:26.128Z,12.4
2022-11-08T14:17:56.721Z,12.1
2022-11-08T14:20:27.336Z,11.9
2022-11-08T14:22:57.941Z,11.7
2022-11-08T14:25:29.269Z,11.6
2022-11-08T14:28:09.859Z,11.2
2022-11-08T14:30:40.480Z,10.6
2022-11-08T14:33:11.454Z,10.6
2022-11-08T14:35:42.454Z,10.4
2022-11-08T14:38:13.045Z,10.2
2022-11-08T14:40:43.600Z,10.0
2022-11-08T14:43:24.215Z,9.9
2022-11-08T14:45:54.825Z,9.7
2022-11-08T14:50:55.562Z,9.5
2022-11-08T14:53:26.148Z,9.4
2022-11-08T14:56:06.792Z,9.3
2022-11-08T14:58:37.412Z,9.2
2022-11-08T15:01:07.998Z,9.1
2022-11-08T15:03:38.666Z,9.1
2022-11-08T15:06:13.713Z,9.0
2022-11-08T15:08:44.596Z,8.9
2022-11-08T15:11:25.824Z,8.9
2022-11-08T15:14:00.804Z,8.8
2022-11-08T15:16:31.414Z,8.7
2022-11-08T15:19:02.031Z,8.6
2022-11-08T15:21:32.636Z,8.5
2022-11-08T15:24:03.232Z,8.4
2022-11-08T15:26:43.830Z,8.3
2022-11-08T15:31:44.582Z,8.0
2022-11-08T15:34:11.598Z,7.9
2022-11-08T15:36:42.188Z,7.9
2022-11-08T15:39:12.754Z,7.9
2022-11-08T15:41:53.357Z,7.9
2022-11-08T15:44:23.951Z,7.8
2022-11-08T15:46:54.595Z,7.8
2022-11-08T15:49:25.188Z,7.8
2022-11-08T15:51:55.754Z,7.6
2022-11-08T15:54:41.644Z,7.6
2022-11-08T15:57:12.252Z,7.5
2022-11-08T15:59:42.833Z,7.5
2022-11-08T16:02:13.401Z,7.4
2022-11-08T16:04:43.975Z,7.3
2022-11-08T16:07:14.690Z,7.2
2022-11-08T16:12:25.490Z,7.1
2022-11-08T16:14:56.087Z,7.1
2022-11-08T16:17:26.688Z,7.0
2022-11-08T16:19:57.292Z,6.9
2022-11-08T16:22:27.907Z,6.8
2022-11-08T16:25:08.521Z,6.8
2022-11-08T16:27:39.115Z,6.8
2022-11-08T16:30:09.715Z,6.8
2022-11-08T16:32:40.308Z,6.8
2022-11-08T16:35:10.935Z,6.8
2022-11-08T16:40:21.686Z,6.7
2022-11-08T16:42:52.284Z,6.6
2022-11-08T16:45:37.445Z,6.5
2022-11-08T16:47:56.006Z,6.4
2022-11-08T16:53:07.282Z,6.4
2022-11-08T16:55:37.864Z,6.4
2022-11-08T16:58:08.462Z,6.5
2022-11-08T17:00:39.529Z,6.5
2022-11-08T17:03:10.270Z,6.6
2022-11-08T17:05:40.883Z,6.6
2022-11-08T17:08:21.732Z,6.6
2022-11-08T17:10:52.535Z,6.7
2022-11-08T17:13:23.111Z,6.7
2022-11-08T17:15:50.575Z,6.7
2022-11-08T17:18:21.502Z,6.7
2022-11-08T17:20:52.173Z,6.6
2022-11-08T17:23:35.792Z,6.6
2022-11-08T17:26:06.408Z,6.5
2022-11-08T17:28:36.994Z,6.5
2022-11-08T17:33:37.728Z,5.9
2022-11-08T17:36:08.360Z,5.9
2022-11-08T17:38:48.960Z,5.8
2022-11-08T17:41:19.552Z,5.7
2022-11-08T17:43:50.229Z,5.4
2022-11-08T17:46:20.884Z,5.3
2022-11-08T17:48:51.456Z,5.2
2022-11-08T17:51:22.051Z,5.2
2022-11-08T17:54:02.651Z,5.2
2022-11-08T17:56:33.293Z,5.1
2022-11-08T17:59:03.904Z,5.1
2022-11-08T18:01:34.682Z,5.1
2022-11-08T18:04:05.446Z,4.9
2022-11-08T18:06:46.117Z,4.8
2022-11-08T18:09:17.008Z,4.9
2022-11-08T18:14:17.751Z,5.2
2022-11-08T18:16:49.232Z,5.4
2022-11-08T18:19:19.867Z,5.4
2022-11-08T18:22:00.490Z,5.4
2022-11-08T18:24:31.232Z,5.4
2022-11-08T18:27:06.623Z,5.4
2022-11-08T18:29:37.202Z,5.2
2022-11-08T18:32:07.826Z,5.2
2022-11-08T18:34:38.429Z,5.1
2022-11-08T18:37:19.080Z,5.4
2022-11-08T18:39:49.674Z,5.6
2022-11-08T18:42:20.271Z,5.8
2022-11-08T18:44:50.891Z,6.0
2022-11-08T18:47:21.498Z,6.0
2022-11-08T18:49:52.094Z,6.0
2022-11-08T18:55:02.822Z,5.8
2022-11-08T18:57:33.431Z,5.6
2022-11-08T19:00:04.084Z,5.5
2022-11-08T19:02:34.689Z,5.4
2022-11-08T19:05:15.279Z,5.4
2022-11-08T19:07:45.891Z,5.6
2022-11-08T19:10:16.517Z,5.7
2022-11-08T19:12:47.107Z,5.8
2022-11-08T19:15:17.684Z,6.0
2022-11-08T19:17:52.257Z,6.0
2022-11-08T19:20:33.294Z,6.0
2022-11-08T19:23:03.902Z,6.0
2022-11-08T19:25:34.771Z,6.1
2022-11-08T19:28:06.103Z,6.2
2022-11-08T19:30:32.755Z,6.1
2022-11-08T19:35:43.517Z,6.1
2022-11-08T19:38:14.130Z,6.1
2022-11-08T19:40:44.734Z,6.1
2022-11-08T19:43:15.588Z,6.0
2022-11-08T19:45:50.698Z,6.0
2022-11-08T19:48:21.664Z,6.0
2022-11-08T19:51:02.400Z,5.9
2022-11-08T19:53:32.969Z,5.8
2022-11-08T19:56:03.559Z,5.8
2022-11-08T19:58:33.962Z,5.8
2022-11-08T20:01:04.574Z,5.8
2022-11-08T20:03:35.400Z,5.7
2022-11-08T20:06:16.011Z,5.7
2022-11-08T20:08:46.683Z,5.7
2022-11-08T20:11:17.318Z,5.7
2022-11-08T20:16:18.063Z,5.6
2022-11-08T20:18:58.641Z,5.6
2022-11-08T20:21:29.256Z,5.5
2022-11-08T20:23:59.868Z,5.5
2022-11-08T20:26:30.514Z,5.4
2022-11-08T20:29:01.125Z,5.4
2022-11-08T20:31:31.731Z,5.3
2022-11-08T20:34:13.265Z,5.3
2022-11-08T20:36:44.414Z,5.4
2022-11-08T20:39:15.034Z,5.3
2022-11-08T20:41:45.637Z,5.2
2022-11-08T20:44:16.253Z,5.2
2022-11-08T20:46:46.842Z,5.1
2022-11-08T20:49:27.447Z,4.9
2022-11-08T20:51:58.029Z,5.1
2022-11-08T20:56:58.763Z,4.8
2022-11-08T20:59:29.382Z,4.7
2022-11-08T21:02:00.110Z,4.7
2022-11-08T21:04:40.960Z,4.7
2022-11-08T21:09:50.623Z,4.5
2022-11-08T21:12:12.572Z,4.3
2022-11-08T21:14:43.340Z,4.4
2022-11-08T21:17:22.381Z,4.3
2022-11-08T21:19:53.238Z,4.3
2022-11-08T21:22:23.844Z,4.1
2022-11-08T21:24:54.463Z,4.0
2022-11-08T21:27:35.083Z,3.9
2022-11-08T21:30:05.654Z,3.8
2022-11-08T21:32:46.235Z,3.9
2022-11-08T21:37:47.009Z,3.7
2022-11-08T21:40:17.609Z,3.7
2022-11-08T21:42:48.784Z,3.7
2022-11-08T21:45:19.671Z,3.7
2022-11-08T21:48:00.277Z,3.6
2022-11-08T21:50:25.735Z,3.5
2022-11-08T21:52:56.334Z,3.5
2022-11-08T21:55:26.927Z,3.7
2022-11-08T21:57:57.505Z,3.9
2022-11-08T22:00:28.636Z,3.9
2022-11-08T22:03:09.375Z,3.8
2022-11-08T22:05:39.987Z,3.8
2022-11-08T22:08:10.608Z,3.6
2022-11-08T22:10:41.596Z,3.5
2022-11-08T22:13:12.177Z,3.5
2022-11-08T22:18:36.646Z,3.5
2022-11-08T22:20:56.016Z,3.4
2022-11-08T22:23:26.599Z,3.3
2022-11-08T22:25:57.215Z,3.2
2022-11-08T22:28:27.789Z,3.2
2022-11-08T22:30:58.377Z,3.1
2022-11-08T22:33:38.974Z,3.1
2022-11-08T22:36:09.577Z,3.1
2022-11-08T22:38:40.220Z,3.2
2022-11-08T22:41:10.815Z,3.2
2022-11-08T22:43:41.396Z,3.3
2022-11-08T22:46:22.468Z,3.5
2022-11-08T22:48:53.100Z,3.6
2022-11-08T22:51:23.716Z,3.5
2022-11-08T22:53:54.286Z,3.5
2022-11-08T22:58:55.014Z,3.0
2022-11-08T23:01:35.639Z,2.9
2022-11-08T23:04:06.245Z,2.7
2022-11-08T23:06:36.891Z,2.6
2022-11-08T23:09:07.681Z,2.5
2022-11-08T23:11:38.281Z,2.5
2022-11-08T23:14:08.878Z,2.5
2022-11-08T23:16:55.932Z,2.7
2022-11-08T23:19:26.517Z,2.6
2022-11-08T23:21:57.146Z,2.5
2022-11-08T23:24:27.744Z,2.5
2022-11-08T23:26:58.345Z,2.5
2022-11-08T23:29:29.028Z,2.4
2022-11-08T23:32:09.650Z,2.5
2022-11-08T23:34:40.266Z,2.6
2022-11-08T23:39:41.019Z,2.7
2022-11-08T23:42:11.613Z,2.7
2022-11-08T23:44:52.226Z,2.5
2022-11-08T23:47:22.829Z,2.6
2022-11-08T23:49:53.420Z,2.6
2022-11-08T23:52:23.985Z,2.5
2022-11-08T23:54:54.577Z,2.5
2022-11-08T23:57:25.192Z,2.7
